sensor_id;sensor_type;location;lat;lon;timestamp;P1;durP1;ratioP1;P2;durP2;ratioP2
57329;SDS011;43163;51.032;18.280;2023-05-10T00:07:18;8.30;;;4.50;;
57329;SDS011;43163;51.032;18.280;2023-05-10T00:17:08;5.10;;;3.60;;
57329;SDS011;43163;51.032;18.280;2023-05-10T00:26:57;3.30;;;2.80;;
57329;SDS011;43163;51.032;18.280;2023-05-10T00:36:50;7.60;;;4.60;;
57329;SDS011;43163;51.032;18.280;2023-05-10T00:46:39;6.20;;;5.00;;
57329;SDS011;43163;51.032;18.280;2023-05-10T00:56:28;6.60;;;4.70;;
57329;SDS011;43163;51.032;18.280;2023-05-10T01:06:19;5.80;;;4.20;;
57329;SDS011;43163;51.032;18.280;2023-05-10T01:16:09;6.20;;;4.40;;
57329;SDS011;43163;51.032;18.280;2023-05-10T01:26:18;10.20;;;4.50;;
57329;SDS011;43163;51.032;18.280;2023-05-10T01:37:13;9.70;;;4.60;;
57329;SDS011;43163;51.032;18.280;2023-05-10T01:48:05;6.70;;;3.90;;
57329;SDS011;43163;51.032;18.280;2023-05-10T01:57:59;7.10;;;4.20;;
57329;SDS011;43163;51.032;18.280;2023-05-10T02:07:57;4.80;;;4.00;;
57329;SDS011;43163;51.032;18.280;2023-05-10T02:17:47;7.10;;;5.00;;
57329;SDS011;43163;51.032;18.280;2023-05-10T02:27:38;6.70;;;4.80;;
57329;SDS011;43163;51.032;18.280;2023-05-10T02:37:30;9.50;;;4.90;;
57329;SDS011;43163;51.032;18.280;2023-05-10T02:47:27;4.70;;;3.20;;
57329;SDS011;43163;51.032;18.280;2023-05-10T02:57:33;7.60;;;5.00;;
57329;SDS011;43163;51.032;18.280;2023-05-10T03:07:24;5.80;;;4.30;;
57329;SDS011;43163;51.032;18.280;2023-05-10T03:17:45;4.70;;;1.80;;
57329;SDS011;43163;51.032;18.280;2023-05-10T03:28:01;10.40;;;4.70;;
57329;SDS011;43163;51.032;18.280;2023-05-10T03:37:51;21.00;;;12.30;;
57329;SDS011;43163;51.032;18.280;2023-05-10T03:47:40;46.40;;;29.40;;
57329;SDS011;43163;51.032;18.280;2023-05-10T03:57:30;38.40;;;20.30;;
57329;SDS011;43163;51.032;18.280;2023-05-10T04:07:20;34.20;;;18.20;;
57329;SDS011;43163;51.032;18.280;2023-05-10T04:17:09;16.50;;;7.50;;
57329;SDS011;43163;51.032;18.280;2023-05-10T04:27:00;6.20;;;5.40;;
57329;SDS011;43163;51.032;18.280;2023-05-10T04:36:50;8.90;;;5.30;;
57329;SDS011;43163;51.032;18.280;2023-05-10T05:27:05;7.80;;;4.30;;
57329;SDS011;43163;51.032;18.280;2023-05-10T05:36:55;7.20;;;4.10;;
57329;SDS011;43163;51.032;18.280;2023-05-10T05:46:45;7.10;;;5.60;;
57329;SDS011;43163;51.032;18.280;2023-05-10T05:56:33;4.00;;;3.70;;
57329;SDS011;43163;51.032;18.280;2023-05-10T06:06:23;7.30;;;4.00;;
57329;SDS011;43163;51.032;18.280;2023-05-10T06:16:19;6.80;;;4.80;;
57329;SDS011;43163;51.032;18.280;2023-05-10T06:26:10;11.60;;;6.00;;
57329;SDS011;43163;51.032;18.280;2023-05-10T06:36:00;3.40;;;2.50;;
57329;SDS011;43163;51.032;18.280;2023-05-10T06:45:53;2.70;;;2.50;;
57329;SDS011;43163;51.032;18.280;2023-05-10T06:55:42;6.50;;;4.40;;
57329;SDS011;43163;51.032;18.280;2023-05-10T07:05:37;26.20;;;4.00;;
57329;SDS011;43163;51.032;18.280;2023-05-10T07:15:28;11.30;;;3.50;;
57329;SDS011;43163;51.032;18.280;2023-05-10T07:25:22;3.40;;;2.60;;
57329;SDS011;43163;51.032;18.280;2023-05-10T07:35:32;3.40;;;2.70;;
57329;SDS011;43163;51.032;18.280;2023-05-10T07:45:24;6.60;;;3.40;;
57329;SDS011;43163;51.032;18.280;2023-05-10T07:55:14;3.00;;;2.20;;
57329;SDS011;43163;51.032;18.280;2023-05-10T08:05:07;15.40;;;3.00;;
57329;SDS011;43163;51.032;18.280;2023-05-10T08:14:57;2.50;;;2.00;;
57329;SDS011;43163;51.032;18.280;2023-05-10T08:24:48;4.00;;;2.70;;
57329;SDS011;43163;51.032;18.280;2023-05-10T08:34:37;2.90;;;2.30;;
57329;SDS011;43163;51.032;18.280;2023-05-10T08:44:31;2.50;;;2.30;;
57329;SDS011;43163;51.032;18.280;2023-05-10T08:54:32;5.30;;;3.40;;
57329;SDS011;43163;51.032;18.280;2023-05-10T09:04:25;4.50;;;2.60;;
57329;SDS011;43163;51.032;18.280;2023-05-10T09:14:16;3.80;;;2.90;;
57329;SDS011;43163;51.032;18.280;2023-05-10T09:24:08;11.60;;;2.80;;
57329;SDS011;43163;51.032;18.280;2023-05-10T09:34:29;10.10;;;2.40;;
57329;SDS011;43163;51.032;18.280;2023-05-10T09:44:26;6.10;;;3.30;;
57329;SDS011;43163;51.032;18.280;2023-05-10T09:54:34;5.00;;;3.40;;
57329;SDS011;43163;51.032;18.280;2023-05-10T10:04:30;5.20;;;3.10;;
57329;SDS011;43163;51.032;18.280;2023-05-10T10:14:28;4.50;;;2.30;;
57329;SDS011;43163;51.032;18.280;2023-05-10T10:24:23;1.70;;;1.60;;
57329;SDS011;43163;51.032;18.280;2023-05-10T10:34:43;3.00;;;2.40;;
57329;SDS011;43163;51.032;18.280;2023-05-10T11:30:40;1.40;;;1.30;;
57329;SDS011;43163;51.032;18.280;2023-05-10T11:40:34;2.70;;;2.30;;
57329;SDS011;43163;51.032;18.280;2023-05-10T11:50:31;2.40;;;2.20;;
57329;SDS011;43163;51.032;18.280;2023-05-10T12:00:30;2.30;;;1.80;;
57329;SDS011;43163;51.032;18.280;2023-05-10T12:10:38;3.50;;;1.90;;
57329;SDS011;43163;51.032;18.280;2023-05-10T12:20:32;1.80;;;1.70;;
57329;SDS011;43163;51.032;18.280;2023-05-10T12:30:28;2.70;;;1.20;;
57329;SDS011;43163;51.032;18.280;2023-05-10T12:40:58;2.10;;;1.80;;
57329;SDS011;43163;51.032;18.280;2023-05-10T12:51:28;4.20;;;2.10;;
57329;SDS011;43163;51.032;18.280;2023-05-10T13:01:16;3.80;;;2.80;;
57329;SDS011;43163;51.032;18.280;2023-05-10T13:11:08;7.90;;;2.20;;
57329;SDS011;43163;51.032;18.280;2023-05-10T13:20:58;2.60;;;1.80;;
57329;SDS011;43163;51.032;18.280;2023-05-10T13:30:48;4.00;;;2.20;;
57329;SDS011;43163;51.032;18.280;2023-05-10T13:40:37;1.90;;;1.80;;
57329;SDS011;43163;51.032;18.280;2023-05-10T13:50:28;2.70;;;1.30;;
57329;SDS011;43163;51.032;18.280;2023-05-10T14:00:18;1.80;;;1.70;;
57329;SDS011;43163;51.032;18.280;2023-05-10T14:10:11;1.50;;;1.30;;
57329;SDS011;43163;51.032;18.280;2023-05-10T14:20:02;2.40;;;1.20;;
57329;SDS011;43163;51.032;18.280;2023-05-10T14:29:59;5.60;;;1.70;;
57329;SDS011;43163;51.032;18.280;2023-05-10T14:39:52;1.40;;;1.30;;
57329;SDS011;43163;51.032;18.280;2023-05-10T14:49:44;1.70;;;1.60;;
57329;SDS011;43163;51.032;18.280;2023-05-10T14:59:38;6.50;;;2.40;;
57329;SDS011;43163;51.032;18.280;2023-05-10T15:09:30;2.70;;;1.70;;
57329;SDS011;43163;51.032;18.280;2023-05-10T15:19:19;2.60;;;2.20;;
57329;SDS011;43163;51.032;18.280;2023-05-10T15:29:10;8.40;;;2.70;;
57329;SDS011;43163;51.032;18.280;2023-05-10T15:39:01;2.80;;;2.40;;
57329;SDS011;43163;51.032;18.280;2023-05-10T15:48:54;6.30;;;2.10;;
57329;SDS011;43163;51.032;18.280;2023-05-10T15:58:43;1.80;;;1.70;;
57329;SDS011;43163;51.032;18.280;2023-05-10T16:08:33;6.90;;;2.80;;
57329;SDS011;43163;51.032;18.280;2023-05-10T16:18:23;3.50;;;2.40;;
57329;SDS011;43163;51.032;18.280;2023-05-10T16:28:12;7.60;;;2.60;;
57329;SDS011;43163;51.032;18.280;2023-05-10T17:28:15;4.00;;;3.10;;
57329;SDS011;43163;51.032;18.280;2023-05-10T17:38:24;4.90;;;3.40;;
57329;SDS011;43163;51.032;18.280;2023-05-10T17:48:21;5.30;;;3.50;;
57329;SDS011;43163;51.032;18.280;2023-05-10T17:58:18;8.00;;;4.10;;
57329;SDS011;43163;51.032;18.280;2023-05-10T18:08:15;5.00;;;3.50;;
57329;SDS011;43163;51.032;18.280;2023-05-10T18:18:26;3.70;;;2.60;;
57329;SDS011;43163;51.032;18.280;2023-05-10T18:28:21;5.20;;;4.10;;
57329;SDS011;43163;51.032;18.280;2023-05-10T18:38:12;7.10;;;3.30;;
57329;SDS011;43163;51.032;18.280;2023-05-10T18:48:01;10.30;;;4.20;;
57329;SDS011;43163;51.032;18.280;2023-05-10T18:57:53;7.70;;;3.70;;
57329;SDS011;43163;51.032;18.280;2023-05-10T19:07:43;3.20;;;2.90;;
57329;SDS011;43163;51.032;18.280;2023-05-10T19:17:38;32.90;;;11.30;;
57329;SDS011;43163;51.032;18.280;2023-05-10T19:27:28;29.20;;;11.20;;
57329;SDS011;43163;51.032;18.280;2023-05-10T19:37:16;35.70;;;13.10;;
57329;SDS011;43163;51.032;18.280;2023-05-10T19:54:33;11.80;;;7.20;;
57329;SDS011;43163;51.032;18.280;2023-05-10T20:04:24;16.40;;;6.80;;
57329;SDS011;43163;51.032;18.280;2023-05-10T20:14:20;12.90;;;5.50;;
57329;SDS011;43163;51.032;18.280;2023-05-10T20:24:11;21.40;;;5.90;;
57329;SDS011;43163;51.032;18.280;2023-05-10T20:34:03;11.40;;;6.60;;
57329;SDS011;43163;51.032;18.280;2023-05-10T20:44:03;17.00;;;5.20;;
57329;SDS011;43163;51.032;18.280;2023-05-10T20:53:56;6.90;;;4.10;;
57329;SDS011;43163;51.032;18.280;2023-05-10T21:03:47;6.60;;;2.40;;
57329;SDS011;43163;51.032;18.280;2023-05-10T21:13:36;9.00;;;3.90;;
57329;SDS011;43163;51.032;18.280;2023-05-10T21:23:25;7.30;;;4.00;;
57329;SDS011;43163;51.032;18.280;2023-05-10T21:33:14;3.00;;;2.70;;
57329;SDS011;43163;51.032;18.280;2023-05-10T21:43:04;5.50;;;3.60;;
57329;SDS011;43163;51.032;18.280;2023-05-10T21:52:54;11.20;;;4.20;;
57329;SDS011;43163;51.032;18.280;2023-05-10T22:02:45;5.60;;;3.60;;
57329;SDS011;43163;51.032;18.280;2023-05-10T22:12:34;11.70;;;4.90;;
57329;SDS011;43163;51.032;18.280;2023-05-10T22:22:24;4.50;;;3.40;;
57329;SDS011;43163;51.032;18.280;2023-05-10T22:32:14;5.90;;;3.20;;
